Time;durP1;ratioP1;P1;durP2;ratioP2;P2;SDS_P1;SDS_P2;PMS_P1;PMS_P2;Temp;Humidity;BMP_temperature;BMP_pressure;BME280_temperature;BME280_humidity;BME280_pressure;Samples;Min_cycle;Max_cycle;Signal;HPM_P1;HPM_P2
2022/03/17 00:05:47;;;;;;;23.77;19.17;;;10.70;99.90;;;;;;5006551;28;20017;-83
2022/03/17 00:11:56;;;;;;;23.52;19.33;;;10.90;99.90;;;;;;4995190;28;20154;-83
2022/03/17 00:15:29;;;;;;;29.30;19.25;;;10.90;99.90;;;;;;5009031;28;20030;-83
2022/03/17 00:18:46;;;;;;;25.55;17.48;;;10.90;99.90;;;;;;4952878;28;20035;-83
2022/03/17 00:25:38;;;;;;;23.38;19.23;;;10.90;99.90;;;;;;4952419;28;20174;-82
2022/03/17 00:28:47;;;;;;;26.48;19.27;;;10.90;99.90;;;;;;4951843;29;20043;-83
2022/03/17 00:48:59;;;;;;;23.58;18.65;;;10.90;99.90;;;;;;4920493;29;20139;-81
2022/03/17 01:09:08;;;;;;;23.20;17.23;;;11.10;99.90;;;;;;4927814;29;20102;-81
2022/03/17 01:35:58;;;;;;;19.83;15.98;;;11.10;99.90;;;;;;4904143;29;20075;-83
2022/03/17 01:39:06;;;;;;;25.02;16.45;;;11.10;99.90;;;;;;4916550;28;20203;-83
2022/03/17 01:42:16;;;;;;;18.10;14.73;;;11.10;99.90;;;;;;4993274;28;20033;-82
2022/03/17 03:23:09;;;;;;;23.40;18.70;;;11.60;99.90;;;;;;4967535;28;20082;-85
2022/03/17 03:39:58;;;;;;;23.75;18.55;;;11.60;99.90;;;;;;4936780;28;20290;-86
2022/03/17 03:53:07;;;;;;;24.83;18.55;;;11.60;99.90;;;;;;4869324;29;20565;-87
2022/03/17 04:45:27;;;;;;;;;;;;;;;;;;;;;
2022/03/17 05:09:21;;;;;;;32.30;22.30;;;11.80;99.90;;;;;;4928683;29;20131;-84
2022/03/17 05:19:44;;;;;;;;;;;;;;;;;;;;;
2022/03/17 05:40:19;;;;;;;30.00;20.45;;;11.90;99.90;;;;;;4877661;29;20117;-84
2022/03/17 05:52:42;;;;;;;30.20;21.08;;;12.00;99.90;;;;;;4930934;29;20051;-86
2022/03/17 05:55:34;;;;;;;;;;;;;;;;;;;;;
2022/03/17 05:59:02;;;;;;;28.60;22.03;;;12.00;99.90;;;;;;4972856;28;20023;-85
2022/03/17 06:01:58;;;;;;;32.78;21.45;;;12.00;99.90;;;;;;4995228;28;20284;-85
2022/03/17 06:05:29;;;;;;;28.67;22.63;;;12.00;99.90;;;;;;5055196;28;20461;-85
2022/03/17 06:11:47;;;;;;;29.35;20.92;;;12.10;99.90;;;;;;4954564;28;20043;-86
2022/03/17 06:14:22;;;;;;;31.38;21.15;;;12.10;99.90;;;;;;4971936;28;20034;-85
2022/03/17 06:16:51;;;;;;;37.45;21.67;;;12.00;99.90;;;;;;4973076;28;20043;-86
2022/03/17 06:19:22;;;;;;;29.88;22.15;;;12.10;99.90;;;;;;5004523;28;20086;-86
2022/03/17 06:22:25;;;;;;;31.75;21.15;;;12.10;99.90;;;;;;5073128;28;20115;-85
2022/03/17 06:26:04;;;;;;;;;;;;;;;;;;;;;
2022/03/17 06:28:19;;;;;;;32.00;20.95;;;12.20;99.90;;;;;;5019133;28;20031;-87
2022/03/17 06:30:45;;;;;;;31.10;20.83;;;12.20;99.90;;;;;;5038471;28;20033;-86
2022/03/17 06:33:22;;;;;;;25.38;20.95;;;12.20;99.90;;;;;;5072952;28;20024;-87
2022/03/17 06:35:51;;;;;;;32.42;21.83;;;12.30;99.90;;;;;;5054646;28;20036;-86
2022/03/17 06:38:20;;;;;;;38.45;20.92;;;12.20;99.90;;;;;;5055238;28;20378;-87
2022/03/17 06:41:22;;;;;;;28.30;19.98;;;12.30;99.90;;;;;;5074094;28;20495;-85
2022/03/17 06:44:00;;;;;;;25.55;20.35;;;12.30;99.90;;;;;;5069224;28;20093;-84
2022/03/17 06:55:55;;;;;;;28.35;20.42;;;12.50;99.90;;;;;;5013390;28;20029;-86
2022/03/17 06:58:40;;;;;;;;;;;;;;;;;;;;;
2022/03/17 07:01:12;;;;;;;29.13;20.38;;;12.70;99.90;;;;;;5075723;28;20025;-86
2022/03/17 07:06:29;;;;;;;23.75;19.38;;;12.80;99.90;;;;;;5072383;28;20042;-88
2022/03/17 07:09:10;;;;;;;27.55;19.65;;;12.90;99.90;;;;;;5068365;28;20025;-88
2022/03/17 07:11:44;;;;;;;28.88;18.77;;;12.90;99.90;;;;;;5072261;28;20119;-86
2022/03/17 07:14:13;;;;;;;27.13;18.55;;;13.00;99.90;;;;;;5054894;28;20427;-86
2022/03/17 07:17:21;;;;;;;31.27;19.17;;;13.00;99.90;;;;;;5054183;28;20032;-87
2022/03/17 07:20:09;;;;;;;28.40;19.77;;;13.10;99.90;;;;;;4975778;28;20063;-85
2022/03/17 07:23:02;;;;;;;23.70;18.90;;;13.20;99.90;;;;;;5070952;28;20178;-87
2022/03/17 07:25:45;;;;;;;27.20;18.58;;;13.20;99.90;;;;;;5069776;28;20051;-88
2022/03/17 07:28:18;;;;;;;26.25;18.88;;;13.30;99.90;;;;;;5053905;28;20032;-84
2022/03/17 07:31:11;;;;;;;26.27;19.38;;;13.40;99.90;;;;;;5053139;28;20035;-87
2022/03/17 07:33:43;;;;;;;22.65;17.92;;;13.40;99.90;;;;;;5050588;28;20044;-87
2022/03/17 07:36:29;;;;;;;27.48;18.40;;;13.50;99.90;;;;;;5050500;28;20036;-85
2022/03/17 07:39:22;;;;;;;23.83;18.83;;;13.50;99.90;;;;;;5052316;28;20035;-85
2022/03/17 07:41:48;;;;;;;20.15;16.90;;;13.60;99.90;;;;;;5074091;28;20089;-85
2022/03/17 07:44:24;;;;;;;24.60;18.63;;;13.70;99.90;;;;;;5073904;28;20497;-86
2022/03/17 07:47:09;;;;;;;24.67;18.23;;;13.70;99.90;;;;;;5058113;28;20093;-85
2022/03/17 07:49:41;;;;;;;24.77;18.23;;;13.80;99.90;;;;;;5053572;28;20027;-82
2022/03/17 07:52:16;;;;;;;27.58;18.33;;;13.80;99.90;;;;;;5071493;28;20063;-83
2022/03/17 07:54:46;;;;;;;25.98;18.70;;;13.80;99.90;;;;;;5070978;28;20021;-84
2022/03/17 07:57:12;;;;;;;22.05;18.00;;;13.90;99.90;;;;;;5071098;28;20059;-84
2022/03/17 07:59:42;;;;;;;22.58;17.33;;;13.90;99.90;;;;;;5053330;28;20028;-84
2022/03/17 08:02:13;;;;;;;22.13;17.33;;;13.90;99.90;;;;;;5051996;28;20028;-85
2022/03/17 08:04:55;;;;;;;22.10;18.17;;;14.00;99.90;;;;;;5069710;28;20188;-84
2022/03/17 08:07:26;;;;;;;27.17;18.77;;;14.10;99.90;;;;;;5066684;28;20009;-83
2022/03/17 08:10:06;;;;;;;27.38;18.63;;;14.30;99.90;;;;;;5070363;28;20024;-84
2022/03/17 08:13:22;;;;;;;22.13;17.08;;;14.50;99.90;;;;;;5069458;28;20075;-84
2022/03/17 08:15:54;;;;;;;22.58;18.00;;;14.50;99.90;;;;;;5061469;28;20028;-85
2022/03/17 08:18:20;;;;;;;29.85;18.80;;;14.40;99.40;;;;;;5069266;28;20020;-85
2022/03/17 08:20:49;;;;;;;20.55;17.85;;;14.50;99.30;;;;;;5051336;28;20640;-84
2022/03/17 08:23:24;;;;;;;23.80;18.70;;;14.50;99.00;;;;;;5050788;28;20108;-85
2022/03/17 08:25:50;;;;;;;24.60;16.90;;;14.50;98.90;;;;;;5069986;28;20142;-86
2022/03/17 08:28:20;;;;;;;20.05;17.25;;;14.60;98.30;;;;;;5052816;28;20032;-85
2022/03/17 08:30:51;;;;;;;23.75;17.52;;;14.70;97.60;;;;;;5052604;28;20059;-85
2022/03/17 08:33:24;;;;;;;19.67;16.55;;;14.80;97.20;;;;;;5071092;28;20016;-84
2022/03/17 08:36:09;;;;;;;24.30;17.42;;;14.90;96.90;;;;;;5071400;28;20020;-85
2022/03/17 08:39:15;;;;;;;24.70;15.85;;;14.90;96.70;;;;;;5053345;28;20029;-85
2022/03/17 08:41:41;;;;;;;20.58;16.20;;;15.10;96.70;;;;;;5052654;28;20033;-85
2022/03/17 08:44:07;;;;;;;21.70;14.80;;;15.40;96.30;;;;;;5070693;28;20031;-85
2022/03/17 08:49:48;;;;;;;20.30;13.68;;;15.50;92.50;;;;;;5070981;28;20109;-84
2022/03/17 08:52:20;;;;;;;17.00;12.82;;;15.30;92.80;;;;;;5069858;28;20025;-85
2022/03/17 08:55:01;;;;;;;17.55;12.95;;;15.10;93.40;;;;;;5068451;28;20134;-85
2022/03/17 08:57:45;;;;;;;17.02;13.00;;;15.00;92.20;;;;;;5067702;28;20024;-86
2022/03/17 09:00:20;;;;;;;22.08;12.95;;;15.00;92.80;;;;;;5067166;28;20025;-84
2022/03/17 09:03:04;;;;;;;14.40;11.85;;;15.10;91.80;;;;;;5070553;28;20025;-85
2022/03/17 09:05:32;;;;;;;20.90;12.48;;;15.10;91.90;;;;;;5054521;28;20078;-85
2022/03/17 09:08:01;;;;;;;16.98;12.15;;;15.20;91.70;;;;;;5072282;28;20609;-85
2022/03/17 09:10:27;;;;;;;16.08;11.52;;;15.30;91.30;;;;;;5056532;28;20020;-84
2022/03/17 09:12:57;;;;;;;19.13;11.43;;;15.50;91.40;;;;;;5057913;28;20068;-86
2022/03/17 09:15:30;;;;;;;15.65;11.35;;;15.60;91.20;;;;;;5056537;28;20104;-85
2022/03/17 09:17:56;;;;;;;15.63;11.88;;;15.70;90.80;;;;;;5057038;28;20570;-85
2022/03/17 09:20:28;;;;;;;15.50;11.05;;;15.90;90.50;;;;;;5056849;28;20016;-85
2022/03/17 09:22:55;;;;;;;14.45;11.18;;;16.00;89.60;;;;;;5048370;28;20036;-85
2022/03/17 09:25:28;;;;;;;17.52;14.52;;;16.10;89.00;;;;;;5074082;28;20124;-86
2022/03/17 09:28:02;;;;;;;15.82;11.40;;;16.20;88.00;;;;;;5048061;28;20064;-84
2022/03/17 09:30:44;;;;;;;16.77;11.57;;;15.90;88.10;;;;;;5055923;28;20055;-85
2022/03/17 09:33:22;;;;;;;13.80;11.38;;;15.80;90.00;;;;;;5074402;28;20104;-84
2022/03/17 09:36:00;;;;;;;16.98;11.00;;;16.00;89.40;;;;;;5056521;28;20087;-85
2022/03/17 09:41:36;;;;;;;11.85;10.65;;;16.30;88.70;;;;;;5011697;28;20146;-83
2022/03/17 09:44:08;;;;;;;15.50;12.07;;;16.70;87.60;;;;;;5047009;28;20045;-83
2022/03/17 09:46:39;;;;;;;14.88;11.02;;;16.90;87.40;;;;;;5073713;28;20511;-85
2022/03/17 09:49:06;;;;;;;18.30;10.85;;;17.00;85.10;;;;;;5073612;28;20025;-84
2022/03/17 09:51:35;;;;;;;13.82;8.80;;;17.10;85.10;;;;;;5055809;28;20097;-84
2022/03/17 09:54:04;;;;;;;15.77;9.77;;;16.70;82.70;;;;;;5073179;28;20031;-85
2022/03/17 09:56:51;;;;;;;9.63;8.63;;;16.30;83.40;;;;;;5073764;28;20020;-84
2022/03/17 09:59:20;;;;;;;12.20;9.77;;;16.40;84.70;;;;;;5055530;28;20025;-83
2022/03/17 10:01:51;;;;;;;11.95;9.65;;;16.60;84.60;;;;;;5074866;28;20546;-84
2022/03/17 10:04:21;;;;;;;14.80;10.05;;;17.00;84.20;;;;;;5055610;28;20032;-83
2022/03/17 10:06:47;;;;;;;13.88;10.40;;;17.30;82.50;;;;;;5074442;28;20028;-84
2022/03/17 10:09:17;;;;;;;11.73;9.80;;;17.50;82.30;;;;;;5073184;28;20021;-86
2022/03/17 10:12:09;;;;;;;16.30;9.95;;;17.60;80.60;;;;;;5072856;28;20027;-84
2022/03/17 10:14:41;;;;;;;14.65;9.77;;;17.60;81.40;;;;;;5054993;28;20031;-85
2022/03/17 10:17:37;;;;;;;10.40;9.30;;;17.80;80.60;;;;;;5056011;28;20063;-85
2022/03/17 10:20:17;;;;;;;13.07;9.93;;;17.90;78.60;;;;;;5071042;28;20020;-84
2022/03/17 10:22:48;;;;;;;17.10;9.43;;;18.00;80.70;;;;;;5057149;28;20032;-85
2022/03/17 10:25:26;;;;;;;14.23;9.63;;;18.10;77.30;;;;;;5074223;28;20037;-84
2022/03/17 10:27:55;;;;;;;15.27;9.40;;;18.10;79.40;;;;;;5082016;28;20021;-85
2022/03/17 10:30:27;;;;;;;13.73;9.75;;;18.20;77.80;;;;;;5072758;28;20044;-85
2022/03/17 10:32:58;;;;;;;12.20;8.75;;;18.30;77.40;;;;;;5065349;28;20021;-84
2022/03/17 10:35:34;;;;;;;12.35;8.73;;;18.20;74.60;;;;;;5074242;28;20356;-84
2022/03/17 10:38:37;;;;;;;12.27;8.90;;;17.90;74.50;;;;;;5073246;28;20421;-84
2022/03/17 10:41:19;;;;;;;13.50;9.13;;;17.90;75.10;;;;;;5058643;28;20393;-83
2022/03/17 10:43:45;;;;;;;13.45;8.82;;;18.00;76.40;;;;;;5073287;28;20036;-84
2022/03/17 10:46:20;;;;;;;9.73;7.68;;;18.40;74.50;;;;;;5072977;28;20036;-84
2022/03/17 10:48:56;;;;;;;12.75;8.93;;;18.30;72.00;;;;;;5074237;28;20070;-85
2022/03/17 10:51:57;;;;;;;11.25;9.00;;;18.10;72.20;;;;;;5072633;28;20025;-84
2022/03/17 10:54:29;;;;;;;9.40;8.45;;;17.90;72.10;;;;;;5071566;28;20021;-84
2022/03/17 10:57:27;;;;;;;12.90;8.75;;;18.00;73.10;;;;;;5072557;28;20433;-85
2022/03/17 10:59:58;;;;;;;11.98;7.88;;;18.10;71.30;;;;;;5072005;28;20031;-84
2022/03/17 11:02:28;;;;;;;10.35;9.00;;;18.40;71.70;;;;;;5072719;28;20064;-84
2022/03/17 11:04:55;;;;;;;12.68;9.25;;;18.60;72.00;;;;;;5073565;28;20070;-85
2022/03/17 11:07:23;;;;;;;12.40;8.60;;;18.70;69.70;;;;;;5072693;28;20044;-85
2022/03/17 11:09:49;;;;;;;13.32;9.45;;;18.70;70.30;;;;;;5055252;28;20024;-84
2022/03/17 11:12:17;;;;;;;16.83;9.13;;;18.90;69.90;;;;;;5054870;28;20055;-85
2022/03/17 11:14:50;;;;;;;11.60;9.13;;;19.00;68.50;;;;;;5073477;28;20020;-85
2022/03/17 11:17:53;;;;;;;10.57;9.27;;;18.70;67.20;;;;;;5067388;28;20036;-85
2022/03/17 11:20:26;;;;;;;12.35;8.63;;;18.30;70.40;;;;;;5069744;28;20020;-85
2022/03/17 11:23:22;;;;;;;10.63;8.70;;;18.70;70.00;;;;;;5063321;28;20094;-85
2022/03/17 11:25:52;;;;;;;14.07;8.10;;;19.20;67.70;;;;;;5065198;28;20036;-84
2022/03/17 11:28:33;;;;;;;12.18;8.63;;;19.40;66.40;;;;;;5071800;28;20020;-85
2022/03/17 11:31:03;;;;;;;17.23;8.50;;;19.40;66.80;;;;;;5068978;28;20056;-84
2022/03/17 11:33:59;;;;;;;14.70;8.48;;;19.50;65.20;;;;;;5053817;28;20032;-85
2022/03/17 11:36:25;;;;;;;9.95;8.95;;;19.50;64.60;;;;;;5071263;28;20480;-85
2022/03/17 11:39:02;;;;;;;9.68;8.18;;;19.30;66.20;;;;;;5072027;28;20021;-84
2022/03/17 11:41:53;;;;;;;9.88;7.40;;;19.40;66.20;;;;;;5053797;28;20043;-84
2022/03/17 11:48:02;;;;;;;10.55;7.90;;;19.90;62.90;;;;;;4984890;28;20031;-85
2022/03/17 11:50:38;;;;;;;15.63;8.60;;;19.80;63.80;;;;;;5071900;28;20036;-82
2022/03/17 11:53:15;;;;;;;9.50;7.65;;;19.60;62.50;;;;;;5072214;28;20096;-84
2022/03/17 11:56:28;;;;;;;10.98;7.85;;;19.40;63.60;;;;;;5064975;28;20024;-84
2022/03/17 11:58:57;;;;;;;12.30;8.77;;;19.70;64.30;;;;;;5049865;28;20082;-84
2022/03/17 12:01:49;;;;;;;14.20;8.38;;;20.20;62.30;;;;;;5071559;28;20032;-85
2022/03/17 12:04:24;;;;;;;10.68;8.35;;;20.20;61.50;;;;;;5069907;28;20118;-85
2022/03/17 12:07:23;;;;;;;10.88;8.68;;;20.20;61.30;;;;;;5071477;28;20028;-84
2022/03/17 12:10:00;;;;;;;8.95;7.72;;;19.90;60.70;;;;;;5059505;28;20119;-85
2022/03/17 12:12:53;;;;;;;13.55;8.23;;;20.00;62.70;;;;;;5067797;28;20028;-85
2022/03/17 12:16:04;;;;;;;10.23;8.07;;;20.20;61.10;;;;;;5070375;28;20410;-86
2022/03/17 12:18:30;;;;;;;9.85;7.40;;;20.30;60.10;;;;;;5065818;28;20054;-85
2022/03/17 12:20:57;;;;;;;9.90;7.45;;;20.30;59.40;;;;;;5054458;28;20107;-84
2022/03/17 12:23:45;;;;;;;12.90;7.93;;;20.70;59.90;;;;;;5072072;28;20032;-84
2022/03/17 12:26:11;;;;;;;11.88;7.53;;;21.40;58.60;;;;;;5072680;28;20032;-84
2022/03/17 12:28:50;;;;;;;14.07;7.85;;;21.80;57.80;;;;;;5071358;28;20051;-85
2022/03/17 12:31:26;;;;;;;9.77;7.70;;;21.90;57.40;;;;;;5071807;28;20024;-84
2022/03/17 12:34:14;;;;;;;11.55;7.35;;;22.00;56.40;;;;;;5066568;28;20108;-84
2022/03/17 12:36:42;;;;;;;9.77;7.70;;;22.10;56.40;;;;;;5035252;28;20506;-85
2022/03/17 12:39:08;;;;;;;8.30;7.43;;;21.50;56.10;;;;;;5070118;28;20024;-84
2022/03/17 12:41:34;;;;;;;11.27;7.57;;;21.50;56.70;;;;;;5071644;28;20023;-84
2022/03/17 12:44:06;;;;;;;11.07;7.50;;;21.40;56.40;;;;;;5072364;28;20024;-85
2022/03/17 12:46:54;;;;;;;10.65;7.35;;;21.60;57.20;;;;;;5057377;28;20044;-84
2022/03/17 12:49:58;;;;;;;15.85;7.78;;;22.50;55.50;;;;;;5075080;28;20078;-85
2022/03/17 12:52:30;;;;;;;9.23;7.25;;;22.60;55.00;;;;;;5058586;28;20033;-84
2022/03/17 12:55:01;;;;;;;10.82;7.07;;;22.50;54.10;;;;;;5057375;28;20497;-85
2022/03/17 12:57:47;;;;;;;13.93;8.00;;;22.60;54.50;;;;;;5057821;28;20071;-84
2022/03/17 13:00:15;;;;;;;13.02;7.75;;;23.20;54.40;;;;;;5071948;28;20020;-84
2022/03/17 13:02:48;;;;;;;8.32;7.40;;;23.60;52.70;;;;;;5075742;28;20025;-84
2022/03/17 13:08:09;;;;;;;7.72;6.93;;;22.90;53.60;;;;;;5068529;28;20032;-84
2022/03/17 13:16:14;;;;;;;9.63;7.80;;;22.30;55.10;;;;;;5074568;28;20031;-83
2022/03/17 13:18:46;;;;;;;14.48;7.97;;;22.30;54.60;;;;;;5074305;28;20028;-84
2022/03/17 13:21:15;;;;;;;;;;;22.20;54.60;;;;;;5054423;28;20032;-83
2022/03/17 13:23:53;;;;;;;9.70;7.60;;;21.70;54.00;;;;;;5073387;28;19916;-83
2022/03/17 13:26:28;;;;;;;14.90;7.32;;;21.60;55.20;;;;;;5074064;28;20023;-83
2022/03/17 13:29:26;;;;;;;11.02;7.72;;;21.50;55.00;;;;;;5068807;28;20032;-83
2022/03/17 13:32:06;;;;;;;11.38;8.27;;;21.10;55.60;;;;;;5055259;28;20036;-83
2022/03/17 13:34:38;;;;;;;14.68;7.72;;;20.50;56.20;;;;;;5073845;28;20038;-83
2022/03/17 13:37:18;;;;;;;13.30;8.07;;;20.50;56.60;;;;;;5072421;28;20073;-83
2022/03/17 13:39:47;;;;;;;14.25;7.55;;;20.50;56.60;;;;;;5073157;28;20028;-83
2022/03/17 13:42:13;;;;;;;12.00;7.55;;;20.70;56.70;;;;;;5055539;28;20107;-83
2022/03/17 13:44:55;;;;;;;11.35;7.75;;;20.60;56.50;;;;;;5055836;28;20036;-83
2022/03/17 13:47:26;;;;;;;19.52;8.55;;;20.50;56.10;;;;;;5070158;28;20065;-82
2022/03/17 13:50:25;;;;;;;11.02;8.35;;;20.50;56.70;;;;;;5073366;28;20120;-83
2022/03/17 13:53:36;;;;;;;13.95;9.43;;;20.50;56.70;;;;;;5065014;28;20103;-81
2022/03/17 13:56:17;;;;;;;10.10;7.65;;;20.70;56.80;;;;;;5060847;28;20028;-81
2022/03/17 13:58:44;;;;;;;15.35;8.48;;;20.90;55.90;;;;;;5073137;28;20016;-80
2022/03/17 14:01:26;;;;;;;11.93;7.82;;;20.40;56.30;;;;;;5073063;28;20024;-80
2022/03/17 14:04:08;;;;;;;11.10;7.97;;;20.10;57.30;;;;;;5073122;28;20037;-83
2022/03/17 14:06:38;;;;;;;10.10;8.27;;;20.50;57.40;;;;;;5073168;28;20040;-82
2022/03/17 14:09:15;;;;;;;19.35;9.52;;;20.80;56.50;;;;;;5072710;28;20043;-80
2022/03/17 14:11:49;;;;;;;11.75;9.23;;;20.90;56.90;;;;;;5071856;28;20039;-82
2022/03/17 14:14:27;;;;;;;12.90;8.15;;;20.70;56.80;;;;;;5073026;28;20021;-81
2022/03/17 14:16:56;;;;;;;10.82;7.85;;;20.80;56.30;;;;;;5072428;28;20495;-80
2022/03/17 14:19:24;;;;;;;13.93;8.98;;;20.80;55.70;;;;;;5072687;28;20025;-81
2022/03/17 14:24:45;;;;;;;15.00;9.60;;;20.00;56.60;;;;;;5015512;28;20095;-80
2022/03/17 14:27:14;;;;;;;12.60;8.85;;;19.70;57.70;;;;;;5072873;28;20484;-82
2022/03/17 14:29:40;;;;;;;11.40;9.38;;;19.80;57.00;;;;;;5071839;28;20032;-80
2022/03/17 14:32:12;;;;;;;10.10;8.60;;;19.60;57.00;;;;;;5071106;28;20731;-86
2022/03/17 14:34:40;;;;;;;12.10;9.40;;;19.40;57.50;;;;;;5071290;28;20025;-81
2022/03/17 14:37:06;;;;;;;13.15;10.07;;;19.20;57.80;;;;;;5072806;28;20029;-83
2022/03/17 14:39:32;;;;;;;14.93;9.23;;;19.20;58.20;;;;;;5054869;28;20027;-83
2022/03/17 14:41:58;;;;;;;18.25;10.63;;;19.20;57.90;;;;;;5072775;28;20040;-84
2022/03/17 14:44:24;;;;;;;19.23;9.75;;;18.80;58.50;;;;;;5072418;28;20035;-82
2022/03/17 14:46:51;;;;;;;19.20;9.82;;;18.40;58.70;;;;;;5073851;28;20103;-83
2022/03/17 14:49:23;;;;;;;19.35;10.73;;;18.20;59.30;;;;;;5054745;28;20024;-82
2022/03/17 14:51:49;;;;;;;;;;;18.20;59.30;;;;;;5055521;28;20041;-83
2022/03/17 14:54:18;;;;;;;26.50;11.02;;;18.10;59.80;;;;;;5055077;28;20329;-83
2022/03/17 14:56:45;;;;;;;15.63;11.05;;;18.00;60.70;;;;;;5072250;28;20476;-83
2022/03/17 14:59:11;;;;;;;20.33;11.80;;;18.20;60.10;;;;;;5072330;28;20060;-81
2022/03/17 15:01:36;;;;;;;15.90;12.75;;;18.20;59.80;;;;;;5072277;28;20025;-82
2022/03/17 15:04:05;;;;;;;15.65;10.27;;;18.20;60.10;;;;;;5071206;28;20024;-81
2022/03/17 15:06:31;;;;;;;16.83;11.98;;;18.40;59.60;;;;;;5053031;28;20387;-81
2022/03/17 15:09:08;;;;;;;16.75;10.57;;;18.20;60.10;;;;;;5072124;28;20054;-81
2022/03/17 15:11:35;;;;;;;17.80;11.10;;;18.10;60.70;;;;;;5071702;28;20020;-82
2022/03/17 15:14:01;;;;;;;16.27;10.43;;;18.10;60.40;;;;;;5054142;28;20028;-80
2022/03/17 15:16:27;;;;;;;17.70;10.98;;;17.90;60.30;;;;;;5071992;28;20078;-81
2022/03/17 15:18:59;;;;;;;14.60;10.55;;;17.60;60.90;;;;;;5066630;28;20505;-82
2022/03/17 15:21:25;;;;;;;16.17;10.55;;;17.60;61.30;;;;;;5072025;28;20567;-83
2022/03/17 15:23:50;;;;;;;18.13;11.05;;;17.50;61.30;;;;;;5071592;28;20087;-82
2022/03/17 15:26:16;;;;;;;16.45;10.57;;;17.30;62.20;;;;;;5071747;28;20048;-82
2022/03/17 15:31:30;;;;;;;13.88;10.60;;;17.40;62.50;;;;;;5072160;28;20081;-82
2022/03/17 15:33:57;;;;;;;16.20;9.65;;;17.40;62.10;;;;;;5072193;28;20021;-82
2022/03/17 15:36:24;;;;;;;15.63;9.57;;;17.60;61.90;;;;;;5053848;28;20060;-82
2022/03/17 15:39:00;;;;;;;17.98;11.05;;;17.70;62.30;;;;;;5071549;28;20074;-82
2022/03/17 15:41:26;;;;;;;15.95;11.18;;;17.80;62.00;;;;;;5071434;28;20111;-81
2022/03/17 15:43:54;;;;;;;20.38;11.27;;;17.60;61.90;;;;;;5066372;28;20062;-81
2022/03/17 15:46:23;;;;;;;14.85;11.15;;;17.40;61.70;;;;;;5053092;28;20025;-80
2022/03/17 15:48:49;;;;;;;14.48;10.82;;;17.30;62.60;;;;;;5071115;28;20482;-81
2022/03/17 15:51:17;;;;;;;18.50;11.10;;;16.80;63.60;;;;;;5071082;28;20043;-80
2022/03/17 15:53:46;;;;;;;18.35;10.80;;;16.80;63.90;;;;;;5071130;28;20028;-83
2022/03/17 15:56:14;;;;;;;20.75;10.88;;;16.80;64.00;;;;;;5071208;28;20036;-84
2022/03/17 15:58:43;;;;;;;17.95;11.02;;;16.80;64.20;;;;;;5071607;28;20024;-81
2022/03/17 16:01:09;;;;;;;18.10;11.38;;;16.70;64.50;;;;;;5071392;28;20133;-83
2022/03/17 16:03:39;;;;;;;16.27;11.38;;;16.70;64.30;;;;;;5071297;28;20123;-82
2022/03/17 16:06:06;;;;;;;17.98;11.23;;;16.70;64.70;;;;;;5053126;28;20502;-82
2022/03/17 16:08:32;;;;;;;17.30;11.88;;;16.50;65.10;;;;;;5071388;28;20028;-82
2022/03/17 16:16:29;;;;;;;18.27;11.95;;;16.20;65.80;;;;;;5070952;28;20055;-82
2022/03/17 16:18:55;;;;;;;18.27;12.32;;;16.00;66.50;;;;;;5053513;28;20032;-82
2022/03/17 16:21:25;;;;;;;21.80;12.93;;;15.90;67.50;;;;;;5071992;28;20025;-84
2022/03/17 16:23:52;;;;;;;18.15;12.95;;;15.70;67.70;;;;;;5052480;28;20101;-82
2022/03/17 16:26:19;;;;;;;23.55;13.27;;;15.60;67.60;;;;;;5071542;28;20028;-86
2022/03/17 16:28:46;;;;;;;19.83;12.80;;;15.50;68.20;;;;;;5055062;28;20379;-85
2022/03/17 16:31:21;;;;;;;20.60;12.68;;;15.40;68.60;;;;;;5055060;28;20017;-83
2022/03/17 16:33:50;;;;;;;19.77;13.32;;;15.30;68.60;;;;;;5056595;28;20024;-86
2022/03/17 16:36:18;;;;;;;18.63;12.30;;;15.20;69.00;;;;;;5054642;28;20764;-84
2022/03/17 16:38:47;;;;;;;18.77;12.88;;;15.10;69.60;;;;;;5055321;28;20108;-83
2022/03/17 16:41:13;;;;;;;13.40;11.98;;;15.00;69.30;;;;;;5052671;28;20024;-84
2022/03/17 16:43:41;;;;;;;15.98;12.52;;;14.90;70.90;;;;;;5053406;28;20536;-82
2022/03/17 16:46:07;;;;;;;26.38;14.43;;;14.80;70.40;;;;;;5071981;28;20047;-86
2022/03/17 16:48:34;;;;;;;29.83;13.20;;;14.70;70.60;;;;;;5073490;28;20475;-85
2022/03/17 16:51:00;;;;;;;20.15;12.55;;;14.60;70.30;;;;;;5073368;28;20031;-85
2022/03/17 16:53:26;;;;;;;17.55;12.80;;;14.50;71.50;;;;;;5068504;28;20085;-84
2022/03/17 16:55:54;;;;;;;17.00;12.02;;;14.40;71.00;;;;;;5057501;28;20443;-84
2022/03/17 16:58:21;;;;;;;19.10;13.32;;;14.30;71.50;;;;;;5072489;28;20054;-84
2022/03/17 17:00:47;;;;;;;17.33;12.52;;;14.20;72.50;;;;;;5060793;28;20395;-82
2022/03/17 17:03:13;;;;;;;21.33;13.70;;;14.10;72.50;;;;;;5074174;28;20028;-82
2022/03/17 17:05:39;;;;;;;21.15;14.00;;;14.00;72.30;;;;;;5060459;28;20028;-83
2022/03/17 17:08:05;;;;;;;20.58;13.25;;;13.90;72.40;;;;;;5073708;28;20028;-83
2022/03/17 17:10:38;;;;;;;17.05;13.57;;;13.90;73.10;;;;;;5059227;28;20383;-86
2022/03/17 17:13:08;;;;;;;24.63;13.90;;;13.80;72.80;;;;;;5071399;28;20048;-87
2022/03/17 17:15:34;;;;;;;21.55;13.18;;;13.70;73.40;;;;;;5041604;28;20056;-84
2022/03/17 17:18:02;;;;;;;21.67;13.98;;;13.60;73.80;;;;;;5055868;28;20033;-85
2022/03/17 17:20:30;;;;;;;19.10;13.88;;;13.60;74.10;;;;;;5058024;28;20082;-86
2022/03/17 17:31:19;;;;;;;24.13;13.27;;;13.30;75.10;;;;;;5075312;28;20035;-84
2022/03/17 17:33:56;;;;;;;26.75;14.70;;;13.30;75.30;;;;;;5063017;28;20051;-87
2022/03/17 17:36:29;;;;;;;18.60;15.32;;;13.30;75.60;;;;;;5057782;28;20027;-85
2022/03/17 17:38:58;;;;;;;18.42;14.13;;;13.20;75.90;;;;;;5049606;28;20502;-86
2022/03/17 17:41:27;;;;;;;17.83;14.32;;;13.20;76.30;;;;;;5057959;28;20344;-85
2022/03/17 17:43:53;;;;;;;21.92;14.85;;;13.10;76.60;;;;;;5070322;28;20063;-85
2022/03/17 17:46:28;;;;;;;23.90;14.77;;;13.00;77.10;;;;;;5076225;28;20499;-85
2022/03/17 17:48:54;;;;;;;20.27;14.93;;;12.90;77.00;;;;;;5070537;28;20063;-86
2022/03/17 17:51:20;;;;;;;26.38;15.43;;;12.90;77.10;;;;;;5075790;28;20020;-84
2022/03/17 17:53:46;;;;;;;22.50;14.93;;;12.90;77.50;;;;;;5056347;28;20074;-85
2022/03/17 17:56:14;;;;;;;28.33;14.93;;;12.90;77.60;;;;;;5057258;28;20024;-85
2022/03/17 17:58:46;;;;;;;24.13;15.00;;;12.90;77.70;;;;;;5072890;28;20020;-86
2022/03/17 18:01:12;;;;;;;22.57;14.23;;;12.90;78.30;;;;;;5072573;28;20486;-85
2022/03/17 18:03:39;;;;;;;36.25;24.30;;;12.80;78.10;;;;;;5072806;28;20040;-85
2022/03/17 18:06:07;;;;;;;26.65;15.45;;;12.80;78.50;;;;;;5075559;28;20059;-85
2022/03/17 18:08:33;;;;;;;22.23;15.00;;;12.80;78.90;;;;;;5056749;28;20021;-87
2022/03/17 18:10:59;;;;;;;19.98;15.48;;;12.80;78.50;;;;;;5077686;28;20024;-86
2022/03/17 18:13:28;;;;;;;20.75;14.27;;;12.80;78.70;;;;;;5058243;28;20036;-87
2022/03/17 18:15:54;;;;;;;23.65;15.73;;;12.70;78.90;;;;;;5058022;28;20486;-86
2022/03/17 18:18:20;;;;;;;21.58;15.70;;;12.70;78.90;;;;;;5046642;28;20502;-86
2022/03/17 18:20:55;;;;;;;26.30;15.32;;;12.70;79.10;;;;;;5074691;28;20029;-85
2022/03/17 18:23:42;;;;;;;22.38;14.77;;;12.70;79.80;;;;;;5073537;28;20043;-86
2022/03/17 18:26:36;;;;;;;20.48;15.07;;;12.70;79.30;;;;;;5045316;28;20101;-86
2022/03/17 18:29:05;;;;;;;15.95;13.35;;;12.60;79.70;;;;;;5049123;28;20323;-85
2022/03/17 18:31:35;;;;;;;24.55;14.68;;;12.60;79.80;;;;;;5035722;28;20059;-85
2022/03/17 18:34:06;;;;;;;28.67;16.00;;;12.60;80.80;;;;;;5037212;28;20049;-86
2022/03/17 18:36:47;;;;;;;20.45;15.38;;;12.60;79.90;;;;;;5054304;28;20982;-85
2022/03/17 18:39:13;;;;;;;34.78;15.98;;;12.60;79.90;;;;;;5036799;28;20025;-85
2022/03/17 18:41:39;;;;;;;21.38;15.63;;;12.60;80.00;;;;;;5035293;28;20029;-85
2022/03/17 18:44:10;;;;;;;24.52;15.40;;;12.60;80.70;;;;;;5053558;28;20032;-85
2022/03/17 18:46:39;;;;;;;19.45;15.18;;;12.70;79.90;;;;;;5056569;28;20154;-84
2022/03/17 18:49:08;;;;;;;19.63;15.30;;;12.70;79.80;;;;;;5057827;28;20025;-84
2022/03/17 18:51:36;;;;;;;23.25;15.98;;;12.70;79.30;;;;;;5040911;28;20388;-86
2022/03/17 18:54:21;;;;;;;20.20;16.20;;;12.70;79.80;;;;;;5054884;28;20021;-84
2022/03/17 18:56:50;;;;;;;24.42;15.48;;;12.70;79.80;;;;;;5038115;28;20509;-85
2022/03/17 18:59:17;;;;;;;21.85;15.25;;;12.70;79.60;;;;;;5054501;28;20021;-84
2022/03/17 19:01:44;;;;;;;23.13;16.75;;;12.70;79.50;;;;;;5057002;28;20064;-85
2022/03/17 19:04:19;;;;;;;23.23;15.75;;;12.70;79.90;;;;;;5036794;28;20104;-84
2022/03/17 19:06:49;;;;;;;16.95;14.48;;;12.70;79.40;;;;;;5037261;28;20097;-85
2022/03/17 19:09:14;;;;;;;22.00;15.50;;;12.80;79.50;;;;;;5033211;28;20035;-85
2022/03/17 19:11:46;;;;;;;33.75;15.18;;;12.80;79.70;;;;;;5036887;28;20108;-86
2022/03/17 19:14:21;;;;;;;23.98;14.80;;;12.80;79.90;;;;;;5052587;28;20025;-86